sensor_id;sensor_type;location;lat;lon;timestamp;P1;durP1;ratioP1;P2;durP2;ratioP2
28529;SDS011;15737;49.760;6.632;2022-09-21T00:00:50;7.30;;;1.70;;
28529;SDS011;15737;49.760;6.632;2022-09-21T00:03:16;1.33;;;1.23;;
28529;SDS011;15737;49.760;6.632;2022-09-21T00:05:42;2.07;;;1.23;;
28529;SDS011;15737;49.760;6.632;2022-09-21T00:08:07;1.60;;;1.40;;
28529;SDS011;15737;49.760;6.632;2022-09-21T00:10:36;1.20;;;1.10;;
28529;SDS011;15737;49.760;6.632;2022-09-21T00:13:02;2.13;;;1.70;;
28529;SDS011;15737;49.760;6.632;2022-09-21T00:15:28;1.83;;;1.50;;
28529;SDS011;15737;49.760;6.632;2022-09-21T00:17:55;1.70;;;1.60;;
28529;SDS011;15737;49.760;6.632;2022-09-21T00:20:22;1.97;;;1.73;;
28529;SDS011;15737;49.760;6.632;2022-09-21T00:22:49;2.77;;;1.70;;
28529;SDS011;15737;49.760;6.632;2022-09-21T00:25:15;1.73;;;1.63;;
28529;SDS011;15737;49.760;6.632;2022-09-21T00:27:41;2.57;;;1.33;;
28529;SDS011;15737;49.760;6.632;2022-09-21T00:30:07;2.20;;;1.60;;
28529;SDS011;15737;49.760;6.632;2022-09-21T00:32:34;3.17;;;1.60;;
28529;SDS011;15737;49.760;6.632;2022-09-21T00:35:02;1.83;;;1.37;;
28529;SDS011;15737;49.760;6.632;2022-09-21T00:37:29;3.07;;;1.20;;
28529;SDS011;15737;49.760;6.632;2022-09-21T00:39:54;2.93;;;1.50;;
28529;SDS011;15737;49.760;6.632;2022-09-21T00:42:22;1.03;;;0.97;;
28529;SDS011;15737;49.760;6.632;2022-09-21T00:44:55;1.40;;;1.30;;
28529;SDS011;15737;49.760;6.632;2022-09-21T00:47:22;0.80;;;0.80;;
28529;SDS011;15737;49.760;6.632;2022-09-21T00:50:07;2.23;;;1.27;;
28529;SDS011;15737;49.760;6.632;2022-09-21T00:52:40;3.20;;;1.13;;
28529;SDS011;15737;49.760;6.632;2022-09-21T00:55:11;2.37;;;1.47;;
28529;SDS011;15737;49.760;6.632;2022-09-21T00:57:46;2.00;;;1.60;;
28529;SDS011;15737;49.760;6.632;2022-09-21T01:00:15;1.10;;;1.10;;
28529;SDS011;15737;49.760;6.632;2022-09-21T01:02:40;2.87;;;1.40;;
28529;SDS011;15737;49.760;6.632;2022-09-21T01:05:07;3.20;;;1.67;;
28529;SDS011;15737;49.760;6.632;2022-09-21T01:07:35;2.40;;;1.20;;
28529;SDS011;15737;49.760;6.632;2022-09-21T01:10:04;2.80;;;1.17;;
28529;SDS011;15737;49.760;6.632;2022-09-21T01:12:37;2.40;;;1.20;;
28529;SDS011;15737;49.760;6.632;2022-09-21T01:23:51;3.93;;;1.83;;
28529;SDS011;15737;49.760;6.632;2022-09-21T01:35:12;2.87;;;1.90;;
28529;SDS011;15737;49.760;6.632;2022-09-21T01:37:44;3.23;;;2.40;;
28529;SDS011;15737;49.760;6.632;2022-09-21T01:40:21;1.73;;;1.63;;
28529;SDS011;15737;49.760;6.632;2022-09-21T01:42:51;3.93;;;1.97;;
28529;SDS011;15737;49.760;6.632;2022-09-21T01:45:21;2.10;;;1.50;;
28529;SDS011;15737;49.760;6.632;2022-09-21T01:47:52;3.33;;;1.67;;
28529;SDS011;15737;49.760;6.632;2022-09-21T01:50:20;2.73;;;1.77;;
28529;SDS011;15737;49.760;6.632;2022-09-21T01:55:17;1.57;;;1.20;;
28529;SDS011;15737;49.760;6.632;2022-09-21T01:57:54;4.40;;;1.67;;
28529;SDS011;15737;49.760;6.632;2022-09-21T02:00:26;3.20;;;1.80;;
28529;SDS011;15737;49.760;6.632;2022-09-21T02:03:04;11.20;;;1.60;;
28529;SDS011;15737;49.760;6.632;2022-09-21T02:05:37;1.43;;;1.33;;
28529;SDS011;15737;49.760;6.632;2022-09-21T02:10:35;3.10;;;1.93;;
28529;SDS011;15737;49.760;6.632;2022-09-21T02:13:06;3.07;;;1.60;;
28529;SDS011;15737;49.760;6.632;2022-09-21T02:21:12;2.47;;;1.50;;
28529;SDS011;15737;49.760;6.632;2022-09-21T02:24:13;2.77;;;1.70;;
28529;SDS011;15737;49.760;6.632;2022-09-21T02:29:35;6.77;;;1.73;;
28529;SDS011;15737;49.760;6.632;2022-09-21T02:34:52;4.20;;;1.80;;
28529;SDS011;15737;49.760;6.632;2022-09-21T02:37:58;12.73;;;2.40;;
28529;SDS011;15737;49.760;6.632;2022-09-21T02:40:51;10.03;;;2.17;;
28529;SDS011;15737;49.760;6.632;2022-09-21T02:43:32;2.60;;;1.87;;
28529;SDS011;15737;49.760;6.632;2022-09-21T02:46:00;13.20;;;2.20;;
28529;SDS011;15737;49.760;6.632;2022-09-21T02:48:46;35.03;;;4.07;;
28529;SDS011;15737;49.760;6.632;2022-09-21T02:51:18;64.77;;;4.07;;
28529;SDS011;15737;49.760;6.632;2022-09-21T02:53:49;8.03;;;2.10;;
28529;SDS011;15737;49.760;6.632;2022-09-21T02:56:17;9.77;;;2.30;;
28529;SDS011;15737;49.760;6.632;2022-09-21T02:58:45;6.77;;;2.03;;
28529;SDS011;15737;49.760;6.632;2022-09-21T03:01:14;4.67;;;2.23;;
28529;SDS011;15737;49.760;6.632;2022-09-21T03:03:41;2.63;;;2.00;;
28529;SDS011;15737;49.760;6.632;2022-09-21T03:06:07;12.50;;;3.13;;
28529;SDS011;15737;49.760;6.632;2022-09-21T03:08:32;166.33;;;8.50;;
28529;SDS011;15737;49.760;6.632;2022-09-21T03:10:58;56.23;;;3.83;;
28529;SDS011;15737;49.760;6.632;2022-09-21T03:13:23;19.87;;;3.13;;
28529;SDS011;15737;49.760;6.632;2022-09-21T03:15:49;12.53;;;2.13;;
28529;SDS011;15737;49.760;6.632;2022-09-21T03:18:24;63.20;;;4.60;;
28529;SDS011;15737;49.760;6.632;2022-09-21T03:20:49;25.33;;;2.70;;
28529;SDS011;15737;49.760;6.632;2022-09-21T03:23:15;47.63;;;3.50;;
28529;SDS011;15737;49.760;6.632;2022-09-21T03:25:42;17.27;;;2.60;;
28529;SDS011;15737;49.760;6.632;2022-09-21T03:28:09;9.73;;;2.33;;
28529;SDS011;15737;49.760;6.632;2022-09-21T03:30:34;6.57;;;2.07;;
28529;SDS011;15737;49.760;6.632;2022-09-21T03:33:00;9.33;;;1.57;;
28529;SDS011;15737;49.760;6.632;2022-09-21T03:35:26;20.83;;;2.30;;
28529;SDS011;15737;49.760;6.632;2022-09-21T03:37:51;7.30;;;1.80;;
28529;SDS011;15737;49.760;6.632;2022-09-21T03:40:19;10.93;;;2.03;;
28529;SDS011;15737;49.760;6.632;2022-09-21T03:42:44;16.93;;;2.10;;
28529;SDS011;15737;49.760;6.632;2022-09-21T03:45:10;9.40;;;2.10;;
28529;SDS011;15737;49.760;6.632;2022-09-21T03:47:36;12.13;;;2.47;;
28529;SDS011;15737;49.760;6.632;2022-09-21T03:50:03;3.73;;;1.67;;
28529;SDS011;15737;49.760;6.632;2022-09-21T03:52:29;26.23;;;2.77;;
28529;SDS011;15737;49.760;6.632;2022-09-21T03:54:55;21.27;;;2.30;;
28529;SDS011;15737;49.760;6.632;2022-09-21T03:57:21;13.47;;;2.43;;
28529;SDS011;15737;49.760;6.632;2022-09-21T03:59:46;5.23;;;1.87;;
28529;SDS011;15737;49.760;6.632;2022-09-21T04:02:12;23.30;;;2.70;;
28529;SDS011;15737;49.760;6.632;2022-09-21T04:04:39;2.13;;;1.90;;
28529;SDS011;15737;49.760;6.632;2022-09-21T04:07:04;5.70;;;1.70;;
28529;SDS011;15737;49.760;6.632;2022-09-21T04:09:29;11.87;;;2.00;;
28529;SDS011;15737;49.760;6.632;2022-09-21T04:11:55;6.73;;;2.07;;
28529;SDS011;15737;49.760;6.632;2022-09-21T04:14:20;2.03;;;1.90;;
28529;SDS011;15737;49.760;6.632;2022-09-21T04:16:47;3.33;;;1.70;;
28529;SDS011;15737;49.760;6.632;2022-09-21T04:19:12;9.03;;;2.00;;
28529;SDS011;15737;49.760;6.632;2022-09-21T04:21:38;4.07;;;1.47;;
28529;SDS011;15737;49.760;6.632;2022-09-21T04:24:03;5.03;;;1.93;;
28529;SDS011;15737;49.760;6.632;2022-09-21T04:26:33;2.80;;;1.50;;
28529;SDS011;15737;49.760;6.632;2022-09-21T04:28:59;3.10;;;1.53;;
28529;SDS011;15737;49.760;6.632;2022-09-21T04:31:25;9.57;;;2.13;;
28529;SDS011;15737;49.760;6.632;2022-09-21T04:33:53;12.83;;;2.33;;
28529;SDS011;15737;49.760;6.632;2022-09-21T04:36:20;2.53;;;2.33;;
28529;SDS011;15737;49.760;6.632;2022-09-21T04:38:46;4.47;;;2.43;;
28529;SDS011;15737;49.760;6.632;2022-09-21T04:41:12;4.03;;;2.00;;
28529;SDS011;15737;49.760;6.632;2022-09-21T04:43:42;6.17;;;2.33;;
28529;SDS011;15737;49.760;6.632;2022-09-21T04:46:13;3.20;;;1.97;;
28529;SDS011;15737;49.760;6.632;2022-09-21T04:48:43;3.97;;;2.70;;
28529;SDS011;15737;49.760;6.632;2022-09-21T04:51:09;3.30;;;2.40;;
28529;SDS011;15737;49.760;6.632;2022-09-21T04:53:36;3.77;;;2.27;;
28529;SDS011;15737;49.760;6.632;2022-09-21T04:56:04;5.13;;;2.50;;
28529;SDS011;15737;49.760;6.632;2022-09-21T04:58:31;4.30;;;2.67;;
28529;SDS011;15737;49.760;6.632;2022-09-21T05:00:58;9.97;;;3.03;;
28529;SDS011;15737;49.760;6.632;2022-09-21T05:03:24;6.90;;;3.03;;
28529;SDS011;15737;49.760;6.632;2022-09-21T05:05:51;2.70;;;2.30;;
28529;SDS011;15737;49.760;6.632;2022-09-21T05:08:18;4.33;;;2.30;;
28529;SDS011;15737;49.760;6.632;2022-09-21T05:11:04;4.77;;;1.77;;
28529;SDS011;15737;49.760;6.632;2022-09-21T05:16:04;5.93;;;2.63;;
28529;SDS011;15737;49.760;6.632;2022-09-21T05:18:30;3.27;;;2.40;;
28529;SDS011;15737;49.760;6.632;2022-09-21T05:20:57;10.90;;;3.00;;
28529;SDS011;15737;49.760;6.632;2022-09-21T05:23:24;2.57;;;2.37;;
28529;SDS011;15737;49.760;6.632;2022-09-21T05:25:50;4.63;;;1.93;;
28529;SDS011;15737;49.760;6.632;2022-09-21T05:28:17;4.23;;;2.03;;
28529;SDS011;15737;49.760;6.632;2022-09-21T05:30:43;3.30;;;2.10;;
28529;SDS011;15737;49.760;6.632;2022-09-21T05:33:12;8.50;;;2.77;;
28529;SDS011;15737;49.760;6.632;2022-09-21T05:35:44;5.50;;;2.60;;
28529;SDS011;15737;49.760;6.632;2022-09-21T05:38:33;3.23;;;2.33;;
28529;SDS011;15737;49.760;6.632;2022-09-21T05:40:58;7.20;;;2.77;;
28529;SDS011;15737;49.760;6.632;2022-09-21T05:43:24;19.20;;;3.30;;
28529;SDS011;15737;49.760;6.632;2022-09-21T05:45:52;4.20;;;2.90;;
28529;SDS011;15737;49.760;6.632;2022-09-21T05:48:35;13.40;;;3.47;;
28529;SDS011;15737;49.760;6.632;2022-09-21T05:51:12;5.97;;;2.43;;
28529;SDS011;15737;49.760;6.632;2022-09-21T05:59:57;5.67;;;2.83;;
28529;SDS011;15737;49.760;6.632;2022-09-21T06:05:12;4.07;;;2.70;;
28529;SDS011;15737;49.760;6.632;2022-09-21T06:07:39;7.43;;;3.50;;
28529;SDS011;15737;49.760;6.632;2022-09-21T06:10:05;7.57;;;3.17;;
28529;SDS011;15737;49.760;6.632;2022-09-21T06:12:32;3.37;;;2.60;;
28529;SDS011;15737;49.760;6.632;2022-09-21T06:14:58;4.13;;;2.87;;
28529;SDS011;15737;49.760;6.632;2022-09-21T06:17:23;7.40;;;2.90;;
28529;SDS011;15737;49.760;6.632;2022-09-21T06:19:51;6.23;;;3.20;;
28529;SDS011;15737;49.760;6.632;2022-09-21T06:22:17;8.80;;;3.33;;
28529;SDS011;15737;49.760;6.632;2022-09-21T06:24:42;3.90;;;2.90;;
28529;SDS011;15737;49.760;6.632;2022-09-21T06:27:08;4.90;;;3.10;;
28529;SDS011;15737;49.760;6.632;2022-09-21T06:29:34;5.17;;;3.73;;
28529;SDS011;15737;49.760;6.632;2022-09-21T06:32:00;9.33;;;3.43;;
28529;SDS011;15737;49.760;6.632;2022-09-21T06:34:26;7.50;;;3.30;;
28529;SDS011;15737;49.760;6.632;2022-09-21T06:36:52;5.17;;;2.47;;
28529;SDS011;15737;49.760;6.632;2022-09-21T06:39:17;7.40;;;3.10;;
28529;SDS011;15737;49.760;6.632;2022-09-21T06:41:43;4.77;;;3.63;;
28529;SDS011;15737;49.760;6.632;2022-09-21T06:44:08;7.40;;;3.67;;
28529;SDS011;15737;49.760;6.632;2022-09-21T06:46:34;15.17;;;3.70;;
28529;SDS011;15737;49.760;6.632;2022-09-21T06:48:59;12.53;;;3.93;;
28529;SDS011;15737;49.760;6.632;2022-09-21T06:51:25;8.23;;;4.30;;
28529;SDS011;15737;49.760;6.632;2022-09-21T06:53:54;12.10;;;4.50;;
28529;SDS011;15737;49.760;6.632;2022-09-21T06:56:20;13.63;;;4.20;;
28529;SDS011;15737;49.760;6.632;2022-09-21T06:58:46;5.20;;;3.77;;
28529;SDS011;15737;49.760;6.632;2022-09-21T07:01:12;7.57;;;3.33;;
28529;SDS011;15737;49.760;6.632;2022-09-21T07:03:39;4.13;;;3.10;;
28529;SDS011;15737;49.760;6.632;2022-09-21T07:06:06;6.67;;;3.60;;
28529;SDS011;15737;49.760;6.632;2022-09-21T07:08:32;3.97;;;2.43;;
28529;SDS011;15737;49.760;6.632;2022-09-21T07:10:59;3.87;;;3.00;;
28529;SDS011;15737;49.760;6.632;2022-09-21T07:13:26;4.53;;;3.43;;
28529;SDS011;15737;49.760;6.632;2022-09-21T07:15:52;5.93;;;3.27;;
28529;SDS011;15737;49.760;6.632;2022-09-21T07:18:18;4.37;;;3.00;;
28529;SDS011;15737;49.760;6.632;2022-09-21T07:20:45;7.63;;;3.40;;
28529;SDS011;15737;49.760;6.632;2022-09-21T07:23:12;5.17;;;3.63;;
28529;SDS011;15737;49.760;6.632;2022-09-21T07:25:40;7.83;;;3.30;;
28529;SDS011;15737;49.760;6.632;2022-09-21T07:28:06;7.20;;;4.10;;
28529;SDS011;15737;49.760;6.632;2022-09-21T07:30:32;6.43;;;3.90;;
28529;SDS011;15737;49.760;6.632;2022-09-21T07:32:58;3.40;;;2.70;;
28529;SDS011;15737;49.760;6.632;2022-09-21T07:35:23;4.30;;;3.13;;
28529;SDS011;15737;49.760;6.632;2022-09-21T07:37:49;4.10;;;3.10;;
28529;SDS011;15737;49.760;6.632;2022-09-21T07:40:14;5.70;;;3.07;;
28529;SDS011;15737;49.760;6.632;2022-09-21T07:42:41;2.87;;;2.43;;
28529;SDS011;15737;49.760;6.632;2022-09-21T07:45:08;3.80;;;2.60;;
28529;SDS011;15737;49.760;6.632;2022-09-21T07:47:34;4.67;;;3.03;;
28529;SDS011;15737;49.760;6.632;2022-09-21T07:50:00;3.70;;;2.83;;
28529;SDS011;15737;49.760;6.632;2022-09-21T07:52:26;5.30;;;2.83;;
28529;SDS011;15737;49.760;6.632;2022-09-21T07:54:52;4.87;;;2.83;;
28529;SDS011;15737;49.760;6.632;2022-09-21T07:57:17;3.20;;;2.30;;
28529;SDS011;15737;49.760;6.632;2022-09-21T08:00:02;5.73;;;3.00;;
28529;SDS011;15737;49.760;6.632;2022-09-21T08:02:28;4.27;;;3.07;;
28529;SDS011;15737;49.760;6.632;2022-09-21T08:04:54;4.47;;;3.63;;
28529;SDS011;15737;49.760;6.632;2022-09-21T08:07:19;5.23;;;3.47;;
28529;SDS011;15737;49.760;6.632;2022-09-21T08:09:45;3.40;;;3.07;;
28529;SDS011;15737;49.760;6.632;2022-09-21T08:12:13;4.67;;;3.33;;
28529;SDS011;15737;49.760;6.632;2022-09-21T08:14:42;3.37;;;3.07;;
28529;SDS011;15737;49.760;6.632;2022-09-21T08:17:08;4.93;;;3.13;;
28529;SDS011;15737;49.760;6.632;2022-09-21T08:19:34;4.47;;;3.63;;
28529;SDS011;15737;49.760;6.632;2022-09-21T08:22:15;5.73;;;3.60;;
28529;SDS011;15737;49.760;6.632;2022-09-21T08:24:40;3.83;;;3.40;;
28529;SDS011;15737;49.760;6.632;2022-09-21T08:27:08;4.20;;;3.63;;
28529;SDS011;15737;49.760;6.632;2022-09-21T08:29:34;5.17;;;4.17;;
28529;SDS011;15737;49.760;6.632;2022-09-21T08:32:00;3.93;;;3.53;;
28529;SDS011;15737;49.760;6.632;2022-09-21T08:34:26;5.37;;;3.47;;
28529;SDS011;15737;49.760;6.632;2022-09-21T08:36:51;5.13;;;3.60;;
28529;SDS011;15737;49.760;6.632;2022-09-21T08:39:17;5.30;;;4.30;;
28529;SDS011;15737;49.760;6.632;2022-09-21T08:44:38;4.43;;;3.33;;
28529;SDS011;15737;49.760;6.632;2022-09-21T08:47:29;7.20;;;4.10;;
28529;SDS011;15737;49.760;6.632;2022-09-21T08:52:29;6.17;;;4.00;;
28529;SDS011;15737;49.760;6.632;2022-09-21T08:55:01;5.73;;;3.40;;
28529;SDS011;15737;49.760;6.632;2022-09-21T08:57:33;7.40;;;4.60;;
28529;SDS011;15737;49.760;6.632;2022-09-21T09:00:00;7.03;;;5.17;;
28529;SDS011;15737;49.760;6.632;2022-09-21T09:05:05;5.50;;;3.67;;
28529;SDS011;15737;49.760;6.632;2022-09-21T09:10:39;5.80;;;4.20;;
28529;SDS011;15737;49.760;6.632;2022-09-21T09:21:11;4.95;;;4.47;;
28529;SDS011;15737;49.760;6.632;2022-09-21T09:23:47;12.10;;;11.25;;
28529;SDS011;15737;49.760;6.632;2022-09-21T09:26:22;14.70;;;13.68;;
28529;SDS011;15737;49.760;6.632;2022-09-21T09:28:54;6.75;;;6.18;;
28529;SDS011;15737;49.760;6.632;2022-09-21T09:31:29;7.75;;;7.00;;
28529;SDS011;15737;49.760;6.632;2022-09-21T09:36:45;6.05;;;5.45;;
28529;SDS011;15737;49.760;6.632;2022-09-21T09:39:14;22.05;;;20.63;;
28529;SDS011;15737;49.760;6.632;2022-09-21T09:47:29;104.57;;;99.20;;
28529;SDS011;15737;49.760;6.632;2022-09-21T09:51:03;95.28;;;90.43;;
28529;SDS011;15737;49.760;6.632;2022-09-21T09:53:29;94.05;;;88.55;;
28529;SDS011;15737;49.760;6.632;2022-09-21T09:55:55;114.85;;;108.82;;
28529;SDS011;15737;49.760;6.632;2022-09-21T10:00:57;153.93;;;146.18;;
28529;SDS011;15737;49.760;6.632;2022-09-21T10:03:23;173.50;;;165.18;;
28529;SDS011;15737;49.760;6.632;2022-09-21T10:05:51;65.78;;;62.47;;
28529;SDS011;15737;49.760;6.632;2022-09-21T10:08:27;99.70;;;94.72;;
28529;SDS011;15737;49.760;6.632;2022-09-21T10:10:53;114.35;;;108.70;;
28529;SDS011;15737;49.760;6.632;2022-09-21T10:16:02;113.22;;;107.88;;
28529;SDS011;15737;49.760;6.632;2022-09-21T10:21:32;3.63;;;1.98;;
28529;SDS011;15737;49.760;6.632;2022-09-21T10:26:45;4.70;;;1.95;;
28529;SDS011;15737;49.760;6.632;2022-09-21T10:29:17;3.90;;;2.30;;
28529;SDS011;15737;49.760;6.632;2022-09-21T10:34:36;1.77;;;1.63;;
28529;SDS011;15737;49.760;6.632;2022-09-21T10:37:22;2.60;;;1.65;;
28529;SDS011;15737;49.760;6.632;2022-09-21T10:39:52;3.13;;;1.40;;
28529;SDS011;15737;49.760;6.632;2022-09-21T10:42:18;1.05;;;0.95;;
28529;SDS011;15737;49.760;6.632;2022-09-21T10:44:46;1.80;;;0.90;;
28529;SDS011;15737;49.760;6.632;2022-09-21T10:47:21;2.95;;;0.85;;
28529;SDS011;15737;49.760;6.632;2022-09-21T10:49:59;2.42;;;1.20;;
28529;SDS011;15737;49.760;6.632;2022-09-21T10:52:38;2.10;;;0.90;;
28529;SDS011;15737;49.760;6.632;2022-09-21T10:55:06;2.88;;;0.88;;
28529;SDS011;15737;49.760;6.632;2022-09-21T10:57:41;2.55;;;0.80;;
28529;SDS011;15737;49.760;6.632;2022-09-21T11:02:45;2.35;;;1.15;;
28529;SDS011;15737;49.760;6.632;2022-09-21T11:10:47;2.33;;;0.82;;
28529;SDS011;15737;49.760;6.632;2022-09-21T11:18:39;2.97;;;0.98;;
28529;SDS011;15737;49.760;6.632;2022-09-21T11:26:54;0.98;;;0.73;;
28529;SDS011;15737;49.760;6.632;2022-09-21T11:29:30;2.88;;;0.90;;
28529;SDS011;15737;49.760;6.632;2022-09-21T11:37:49;2.55;;;1.17;;
28529;SDS011;15737;49.760;6.632;2022-09-21T11:46:05;0.93;;;0.90;;
28529;SDS011;15737;49.760;6.632;2022-09-21T11:54:40;2.78;;;1.48;;
28529;SDS011;15737;49.760;6.632;2022-09-21T12:00:33;1.67;;;0.82;;
28529;SDS011;15737;49.760;6.632;2022-09-21T12:10:51;2.80;;;0.90;;
28529;SDS011;15737;49.760;6.632;2022-09-21T12:13:46;2.55;;;0.93;;
28529;SDS011;15737;49.760;6.632;2022-09-21T12:35:11;2.45;;;0.93;;
28529;SDS011;15737;49.760;6.632;2022-09-21T12:38:41;1.35;;;0.85;;
28529;SDS011;15737;49.760;6.632;2022-09-21T12:44:13;2.80;;;0.60;;
28529;SDS011;15737;49.760;6.632;2022-09-21T12:46:46;2.35;;;0.85;;
28529;SDS011;15737;49.760;6.632;2022-09-21T12:49:19;0.75;;;0.57;;
28529;SDS011;15737;49.760;6.632;2022-09-21T12:54:22;2.25;;;0.57;;
28529;SDS011;15737;49.760;6.632;2022-09-21T13:00:03;3.40;;;0.68;;
28529;SDS011;15737;49.760;6.632;2022-09-21T13:05:17;2.50;;;0.70;;
28529;SDS011;15737;49.760;6.632;2022-09-21T13:07:54;0.60;;;0.60;;
28529;SDS011;15737;49.760;6.632;2022-09-21T13:12:57;0.85;;;0.47;;
28529;SDS011;15737;49.760;6.632;2022-09-21T13:21:17;2.40;;;0.50;;
28529;SDS011;15737;49.760;6.632;2022-09-21T13:26:43;1.80;;;0.70;;
28529;SDS011;15737;49.760;6.632;2022-09-21T13:34:34;0.88;;;0.40;;
28529;SDS011;15737;49.760;6.632;2022-09-21T13:39:36;1.65;;;0.55;;
28529;SDS011;15737;49.760;6.632;2022-09-21T13:44:59;0.40;;;0.40;;
28529;SDS011;15737;49.760;6.632;2022-09-21T13:47:32;2.45;;;0.60;;
28529;SDS011;15737;49.760;6.632;2022-09-21T13:50:00;0.60;;;0.60;;
28529;SDS011;15737;49.760;6.632;2022-09-21T13:52:36;0.60;;;0.50;;
28529;SDS011;15737;49.760;6.632;2022-09-21T13:57:56;0.80;;;0.60;;
28529;SDS011;15737;49.760;6.632;2022-09-21T14:03:06;0.50;;;0.50;;
28529;SDS011;15737;49.760;6.632;2022-09-21T14:05:42;0.52;;;0.50;;
28529;SDS011;15737;49.760;6.632;2022-09-21T14:10:40;4.55;;;0.50;;
28529;SDS011;15737;49.760;6.632;2022-09-21T14:16:25;1.85;;;0.60;;
28529;SDS011;15737;49.760;6.632;2022-09-21T14:19:01;1.70;;;0.65;;
28529;SDS011;15737;49.760;6.632;2022-09-21T14:21:31;0.50;;;0.50;;
28529;SDS011;15737;49.760;6.632;2022-09-21T14:29:04;1.25;;;0.60;;
28529;SDS011;15737;49.760;6.632;2022-09-21T14:31:45;0.55;;;0.55;;
28529;SDS011;15737;49.760;6.632;2022-09-21T14:34:17;0.90;;;0.60;;
28529;SDS011;15737;49.760;6.632;2022-09-21T14:36:47;0.93;;;0.50;;
28529;SDS011;15737;49.760;6.632;2022-09-21T14:39:19;0.50;;;0.50;;
28529;SDS011;15737;49.760;6.632;2022-09-21T14:41:49;2.65;;;0.60;;
28529;SDS011;15737;49.760;6.632;2022-09-21T14:44:21;1.30;;;0.45;;
28529;SDS011;15737;49.760;6.632;2022-09-21T14:46:58;0.93;;;0.50;;
28529;SDS011;15737;49.760;6.632;2022-09-21T14:57:43;0.63;;;0.63;;
28529;SDS011;15737;49.760;6.632;2022-09-21T15:00:39;2.40;;;0.55;;
28529;SDS011;15737;49.760;6.632;2022-09-21T15:05:53;0.73;;;0.40;;
28529;SDS011;15737;49.760;6.632;2022-09-21T15:11:19;2.28;;;1.67;;
28529;SDS011;15737;49.760;6.632;2022-09-21T15:16:46;0.95;;;0.50;;
28529;SDS011;15737;49.760;6.632;2022-09-21T15:21:44;3.40;;;0.50;;
28529;SDS011;15737;49.760;6.632;2022-09-21T15:24:20;1.35;;;0.57;;
28529;SDS011;15737;49.760;6.632;2022-09-21T15:27:17;1.55;;;0.60;;
28529;SDS011;15737;49.760;6.632;2022-09-21T15:29:43;1.13;;;0.55;;
28529;SDS011;15737;49.760;6.632;2022-09-21T15:35:01;2.35;;;0.60;;
28529;SDS011;15737;49.760;6.632;2022-09-21T15:37:33;0.57;;;0.50;;
28529;SDS011;15737;49.760;6.632;2022-09-21T15:40:00;1.05;;;0.43;;
28529;SDS011;15737;49.760;6.632;2022-09-21T15:42:31;0.50;;;0.50;;
28529;SDS011;15737;49.760;6.632;2022-09-21T15:45:12;1.60;;;0.50;;
28529;SDS011;15737;49.760;6.632;2022-09-21T15:47:40;2.33;;;0.30;;
28529;SDS011;15737;49.760;6.632;2022-09-21T15:50:13;1.17;;;0.50;;
28529;SDS011;15737;49.760;6.632;2022-09-21T15:52:47;1.25;;;0.40;;
28529;SDS011;15737;49.760;6.632;2022-09-21T15:55:17;0.95;;;0.40;;
28529;SDS011;15737;49.760;6.632;2022-09-21T15:57:45;1.50;;;0.60;;
28529;SDS011;15737;49.760;6.632;2022-09-21T16:00:18;1.58;;;0.60;;
28529;SDS011;15737;49.760;6.632;2022-09-21T16:02:54;0.30;;;0.30;;
28529;SDS011;15737;49.760;6.632;2022-09-21T16:05:29;0.95;;;0.60;;
28529;SDS011;15737;49.760;6.632;2022-09-21T16:08:16;1.08;;;0.47;;
28529;SDS011;15737;49.760;6.632;2022-09-21T16:10:46;0.50;;;0.50;;
28529;SDS011;15737;49.760;6.632;2022-09-21T16:13:16;0.65;;;0.40;;
28529;SDS011;15737;49.760;6.632;2022-09-21T16:16:03;0.50;;;0.50;;
28529;SDS011;15737;49.760;6.632;2022-09-21T16:18:40;1.27;;;0.50;;
28529;SDS011;15737;49.760;6.632;2022-09-21T16:21:29;3.83;;;0.50;;
28529;SDS011;15737;49.760;6.632;2022-09-21T16:23:59;0.90;;;0.30;;
28529;SDS011;15737;49.760;6.632;2022-09-21T16:26:41;1.23;;;0.60;;
28529;SDS011;15737;49.760;6.632;2022-09-21T16:29:21;3.05;;;0.60;;
28529;SDS011;15737;49.760;6.632;2022-09-21T16:32:18;0.90;;;0.40;;
28529;SDS011;15737;49.760;6.632;2022-09-21T16:34:48;0.60;;;0.40;;
28529;SDS011;15737;49.760;6.632;2022-09-21T16:39:44;0.87;;;0.30;;
28529;SDS011;15737;49.760;6.632;2022-09-21T16:42:10;0.90;;;0.43;;
28529;SDS011;15737;49.760;6.632;2022-09-21T16:44:36;2.17;;;0.33;;
28529;SDS011;15737;49.760;6.632;2022-09-21T16:47:26;0.63;;;0.40;;
28529;SDS011;15737;49.760;6.632;2022-09-21T16:49:53;0.40;;;0.40;;
28529;SDS011;15737;49.760;6.632;2022-09-21T16:52:25;0.30;;;0.30;;
28529;SDS011;15737;49.760;6.632;2022-09-21T16:54:52;0.65;;;0.30;;
28529;SDS011;15737;49.760;6.632;2022-09-21T16:57:20;0.82;;;0.50;;
28529;SDS011;15737;49.760;6.632;2022-09-21T16:59:46;0.80;;;0.47;;
28529;SDS011;15737;49.760;6.632;2022-09-21T17:02:13;1.38;;;0.40;;
28529;SDS011;15737;49.760;6.632;2022-09-21T17:04:39;0.40;;;0.40;;
28529;SDS011;15737;49.760;6.632;2022-09-21T17:09:35;2.83;;;0.50;;
28529;SDS011;15737;49.760;6.632;2022-09-21T17:12:03;0.50;;;0.50;;
28529;SDS011;15737;49.760;6.632;2022-09-21T17:14:33;1.20;;;0.70;;
28529;SDS011;15737;49.760;6.632;2022-09-21T17:17:04;4.23;;;0.93;;
28529;SDS011;15737;49.760;6.632;2022-09-21T17:19:37;0.70;;;0.70;;
28529;SDS011;15737;49.760;6.632;2022-09-21T17:22:05;0.70;;;0.70;;
28529;SDS011;15737;49.760;6.632;2022-09-21T17:24:31;0.53;;;0.53;;
28529;SDS011;15737;49.760;6.632;2022-09-21T17:26:58;22.27;;;21.03;;
28529;SDS011;15737;49.760;6.632;2022-09-21T17:29:24;119.73;;;113.97;;
28529;SDS011;15737;49.760;6.632;2022-09-21T17:31:55;49.17;;;46.83;;
28529;SDS011;15737;49.760;6.632;2022-09-21T17:34:23;34.93;;;33.23;;
28529;SDS011;15737;49.760;6.632;2022-09-21T17:36:50;7.23;;;6.80;;
28529;SDS011;15737;49.760;6.632;2022-09-21T17:39:20;2.30;;;2.10;;
28529;SDS011;15737;49.760;6.632;2022-09-21T17:41:49;1.43;;;1.03;;
28529;SDS011;15737;49.760;6.632;2022-09-21T17:44:58;1.17;;;1.07;;
28529;SDS011;15737;49.760;6.632;2022-09-21T17:47:37;1.70;;;0.80;;
28529;SDS011;15737;49.760;6.632;2022-09-21T17:52:44;0.60;;;0.60;;
28529;SDS011;15737;49.760;6.632;2022-09-21T17:55:28;0.50;;;0.50;;
28529;SDS011;15737;49.760;6.632;2022-09-21T18:03:32;1.17;;;1.17;;
28529;SDS011;15737;49.760;6.632;2022-09-21T18:06:01;0.80;;;0.80;;
28529;SDS011;15737;49.760;6.632;2022-09-21T18:08:30;0.97;;;0.90;;
28529;SDS011;15737;49.760;6.632;2022-09-21T18:11:17;1.60;;;0.80;;
28529;SDS011;15737;49.760;6.632;2022-09-21T18:25:10;0.87;;;0.77;;
28529;SDS011;15737;49.760;6.632;2022-09-21T18:27:42;0.80;;;0.70;;
28529;SDS011;15737;49.760;6.632;2022-09-21T18:30:12;1.30;;;0.60;;
28529;SDS011;15737;49.760;6.632;2022-09-21T18:32:56;3.57;;;0.50;;
28529;SDS011;15737;49.760;6.632;2022-09-21T18:35:31;0.40;;;0.40;;
28529;SDS011;15737;49.760;6.632;2022-09-21T18:44:07;0.50;;;0.50;;
28529;SDS011;15737;49.760;6.632;2022-09-21T18:49:21;1.07;;;0.63;;
28529;SDS011;15737;49.760;6.632;2022-09-21T18:54:41;0.73;;;0.70;;
28529;SDS011;15737;49.760;6.632;2022-09-21T18:57:11;0.40;;;0.40;;
28529;SDS011;15737;49.760;6.632;2022-09-21T18:59:38;0.83;;;0.40;;
28529;SDS011;15737;49.760;6.632;2022-09-21T19:02:11;2.23;;;0.60;;
28529;SDS011;15737;49.760;6.632;2022-09-21T19:04:40;0.60;;;0.60;;
28529;SDS011;15737;49.760;6.632;2022-09-21T19:22:12;0.47;;;0.47;;
28529;SDS011;15737;49.760;6.632;2022-09-21T19:25:03;1.90;;;0.60;;
28529;SDS011;15737;49.760;6.632;2022-09-21T19:27:45;0.93;;;0.30;;
28529;SDS011;15737;49.760;6.632;2022-09-21T19:30:19;0.97;;;0.50;;
28529;SDS011;15737;49.760;6.632;2022-09-21T19:32:45;1.80;;;0.70;;
28529;SDS011;15737;49.760;6.632;2022-09-21T19:35:16;1.63;;;0.70;;
28529;SDS011;15737;49.760;6.632;2022-09-21T19:37:42;3.20;;;0.60;;
28529;SDS011;15737;49.760;6.632;2022-09-21T19:40:08;0.97;;;0.90;;
28529;SDS011;15737;49.760;6.632;2022-09-21T19:45:43;0.43;;;0.43;;